Time;durP1;ratioP1;P1;durP2;ratioP2;P2;SDS_P1;SDS_P2;PMS_P1;PMS_P2;Temp;Humidity;BMP_temperature;BMP_pressure;BME280_temperature;BME280_humidity;BME280_pressure;Samples;Min_cycle;Max_cycle;Signal;HPM_P1;HPM_P2
2022/05/13 00:00:39;;;;;;;;;20.00;20.00;;;;;20.28;69.99;99656.50;6282017;20;2829506;-51
2022/05/13 00:03:08;;;;;;;;;18.67;17.33;;;;;20.30;69.42;99659.94;6317942;20;3571141;-53
2022/05/13 00:05:38;;;;;;;;;21.00;21.00;;;;;20.78;67.23;99663.22;6277650;20;2841897;-52
2022/05/13 00:08:07;;;;;;;;;22.33;21.33;;;;;20.89;66.38;99660.22;6313064;20;3575239;-53
2022/05/13 00:10:36;;;;;;;;;21.33;19.67;;;;;20.79;66.31;99654.84;6276348;20;3574212;-51
2022/05/13 00:13:05;;;;;;;;;24.67;23.67;;;;;20.41;68.19;99644.34;6279656;20;2843023;-50
2022/05/13 00:15:34;;;;;;;;;24.00;22.00;;;;;20.17;70.42;99641.25;6310738;20;3589872;-51
2022/05/13 00:18:04;;;;;;;;;28.00;24.00;;;;;19.66;72.15;99634.63;6277630;20;3592003;-53
2022/05/13 00:20:32;;;;;;;;;23.00;20.00;;;;;19.67;72.50;99636.34;6310355;20;3581607;-52
2022/05/13 00:23:01;;;;;;;;;23.00;21.67;;;;;19.67;72.67;99632.78;6281684;20;3582715;-49
2022/05/13 00:25:35;;;;;;;;;21.67;21.33;;;;;19.55;73.52;99637.53;6286551;20;3589940;-52
2022/05/13 00:28:08;;;;;;;;;21.00;21.00;;;;;19.86;71.98;99635.34;6282493;20;3577464;-53
2022/05/13 00:30:43;;;;;;;;;23.00;20.67;;;;;19.58;73.14;99626.34;6283274;20;3585665;-51
2022/05/13 00:33:12;;;;;;;;;24.00;23.00;;;;;19.52;73.88;99627.81;6284666;20;3587727;-54
2022/05/13 00:35:41;;;;;;;;;24.33;22.00;;;;;19.53;73.75;99626.78;6287362;20;3587203;-54
2022/05/13 00:38:09;;;;;;;;;22.00;21.33;;;;;19.32;74.42;99628.94;6283100;20;3584593;-53
2022/05/13 00:40:41;;;;;;;;;26.00;26.00;;;;;19.07;76.05;99628.63;6285029;20;3589994;-53
2022/05/13 00:43:13;;;;;;;;;20.67;19.67;;;;;19.28;75.22;99636.56;6286447;20;3564921;-54
2022/05/13 00:45:42;;;;;;;;;24.00;22.67;;;;;19.51;74.04;99639.72;6284872;20;3600228;-50
2022/05/13 00:48:10;;;;;;;;;26.33;26.00;;;;;19.34;74.07;99647.84;6287520;20;3597204;-51
2022/05/13 00:50:40;;;;;;;;;26.33;23.67;;;;;19.00;76.56;99643.84;6282681;20;3584691;-54
2022/05/13 00:53:13;;;;;;;;;26.00;23.00;;;;;18.71;77.98;99640.34;6286454;20;3601326;-49
2022/05/13 00:55:45;;;;;;;;;20.67;20.67;;;;;18.78;78.37;99644.22;6282305;20;3589840;-52
2022/05/13 00:58:18;;;;;;;;;26.00;25.67;;;;;18.57;79.10;99647.97;6283814;20;3597136;-52
2022/05/13 01:00:47;;;;;;;;;25.00;23.00;;;;;18.90;78.16;99655.78;6282628;20;3589848;-53
2022/05/13 01:03:16;;;;;;;;;28.00;25.33;;;;;18.94;77.82;99652.59;6284803;20;3582568;-50
2022/05/13 01:05:55;;;;;;;;;22.67;22.67;;;;;18.98;77.01;99651.28;6280367;20;3583648;-61
2022/05/13 01:08:26;;;;;;;;;23.00;22.67;;;;;18.96;77.37;99653.31;6315088;20;3594005;-60
2022/05/13 01:10:56;;;;;;;;;21.33;21.00;;;;;19.26;76.44;99657.63;6281126;20;3581648;-61
2022/05/13 01:13:28;;;;;;;;;28.00;25.33;;;;;19.22;75.91;99652.63;6279474;20;3598192;-61
2022/05/13 01:15:58;;;;;;;;;25.67;23.67;;;;;19.51;74.28;99656.06;6281000;20;3598220;-61
2022/05/13 01:18:38;;;;;;;;;24.00;22.67;;;;;19.52;74.72;99655.03;6314211;20;3587849;-61
2022/05/13 01:21:13;;;;;;;;;25.67;25.67;;;;;19.56;74.65;99646.56;6285770;20;3595209;-61
2022/05/13 01:23:45;;;;;;;;;27.67;25.00;;;;;19.62;74.86;99648.69;6281762;20;3599201;-60
2022/05/13 01:26:29;;;;;;;;;26.33;23.33;;;;;19.64;74.86;99652.09;6286244;20;3598176;-60
2022/05/13 01:28:58;;;;;;;;;27.67;25.00;;;;;19.80;73.38;99649.59;6284132;20;3597114;-60
2022/05/13 01:31:38;;;;;;;;;24.67;22.33;;;;;19.81;72.94;99650.44;6282470;20;3600286;-61
2022/05/13 01:34:12;;;;;;;;;23.67;23.67;;;;;19.87;72.80;99658.00;6282398;20;3584620;-60
2022/05/13 01:36:42;;;;;;;;;27.33;22.33;;;;;19.77;73.19;99657.19;6281831;20;3569013;-61
2022/05/13 01:39:11;;;;;;;;;25.00;22.33;;;;;19.68;73.94;99659.00;6281889;20;3592031;-62
2022/05/13 01:41:40;;;;;;;;;27.33;25.00;;;;;19.73;74.05;99656.66;6285738;20;3598332;-62
2022/05/13 01:44:08;;;;;;;;;21.33;20.67;;;;;19.91;72.52;99654.81;6284289;20;3579410;-62
2022/05/13 01:46:37;;;;;;;;;24.33;23.33;;;;;20.02;71.96;99648.28;6285385;20;3598179;-62
2022/05/13 01:49:06;;;;;;;;;25.00;22.33;;;;;19.89;72.29;99645.94;6281374;20;3584641;-61
2022/05/13 01:51:35;;;;;;;;;26.67;26.00;;;;;19.44;75.30;99641.34;6285803;20;3600264;-61
2022/05/13 01:54:04;;;;;;;;;25.67;21.67;;;;;19.33;76.35;99637.97;6283826;20;3594060;-60
2022/05/13 01:56:32;;;;;;;;;25.67;24.67;;;;;19.30;76.61;99656.31;6281907;20;3580432;-60
2022/05/13 01:59:01;;;;;;;;;28.00;26.00;;;;;19.33;76.86;99663.34;6279640;20;3599339;-61
2022/05/13 02:01:30;;;;;;;;;25.67;22.67;;;;;19.48;74.91;99675.44;6285520;20;3569068;-60
2022/05/13 02:03:58;;;;;;;;;9.67;8.00;;;;;19.70;73.78;99667.88;6282824;20;2752313;-60
2022/05/13 02:06:28;;;;;;;;;24.33;23.00;;;;;19.68;73.44;99656.28;6315878;20;3600300;-60
2022/05/13 02:08:59;;;;;;;;;3.75;0.00;;;;;19.92;72.09;99656.50;6301946;20;1793597;-60
2022/05/13 02:11:31;;;;;;;;;24.00;24.00;;;;;19.79;72.65;99653.31;6314289;20;3585774;-60
2022/05/13 02:14:00;;;;;;;;;23.00;21.33;;;;;19.76;72.78;99655.50;6279749;20;3579478;-60
2022/05/13 02:16:29;;;;;;;;;21.00;21.00;;;;;19.70;73.25;99663.28;6280668;20;3566092;-60
2022/05/13 02:18:58;;;;;;;;;21.33;20.67;;;;;19.87;72.89;99663.44;6278853;20;3580434;-60
2022/05/13 02:21:27;;;;;;;;;23.00;23.00;;;;;19.93;72.51;99663.69;6280690;20;3583582;-60
2022/05/13 02:23:56;;;;;;;;;24.00;24.00;;;;;19.80;72.32;99652.31;6283800;20;3596198;-60
2022/05/13 02:26:24;;;;;;;;;27.33;24.67;;;;;19.51;74.57;99647.88;6281530;20;3592091;-60
2022/05/13 02:28:54;;;;;;;;;24.00;24.00;;;;;19.93;72.31;99652.78;6280375;20;3600254;-60
2022/05/13 02:31:23;;;;;;;;;26.33;24.00;;;;;19.29;75.55;99659.19;6314243;20;3596074;-60
2022/05/13 02:33:52;;;;;;;;;25.67;25.67;;;;;19.18;77.06;99651.22;6286624;20;3600218;-61
2022/05/13 02:36:21;;;;;;;;;24.00;23.00;;;;;19.11;78.09;99652.81;6285833;20;3596209;-61
2022/05/13 02:38:49;;;;;;;;;27.00;26.00;;;;;19.34;76.73;99645.97;6284519;20;3600636;-61
2022/05/13 02:41:19;;;;;;;;;27.00;24.00;;;;;19.38;75.92;99641.06;6280804;20;3589899;-61
2022/05/13 02:43:54;;;;;;;;;24.00;22.67;;;;;19.06;77.18;99645.97;6284615;20;3586713;-61
2022/05/13 02:46:32;;;;;;;;;28.00;28.00;;;;;18.76;79.32;99651.66;6283851;20;3604399;-61
2022/05/13 02:49:02;;;;;;;;;25.33;24.00;;;;;18.82;79.41;99653.78;6282051;20;3602344;-60
2022/05/13 02:51:31;;;;;;;;;28.00;23.67;;;;;18.84;79.88;99649.06;6279645;20;3608579;-60
2022/05/13 02:53:59;;;;;;;;;24.67;24.33;;;;;19.01;78.29;99644.69;6282277;20;3586697;-60
2022/05/13 02:56:28;;;;;;;;;26.00;26.00;;;;;19.11;78.68;99655.53;6282703;20;3598277;-60
2022/05/13 02:58:57;;;;;;;;;22.00;21.67;;;;;19.08;78.43;99659.41;6283538;20;3585692;-60
2022/05/13 03:01:26;;;;;;;;;23.00;23.00;;;;;19.08;77.62;99662.16;6282624;20;3594062;-60
2022/05/13 03:03:55;;;;;;;;;21.00;21.00;;;;;19.26;78.00;99664.94;6284272;20;3583593;-60
2022/05/13 03:06:23;;;;;;;;;24.67;23.33;;;;;19.03;78.38;99656.28;6284107;20;3589921;-60
2022/05/13 03:08:54;;;;;;;;;24.33;21.67;;;;;19.31;75.76;99659.91;6279833;20;2839996;-60
2022/05/13 03:11:23;;;;;;;;;16.00;16.00;;;;;19.59;71.87;99652.56;6316284;20;3561724;-60
2022/05/13 03:13:53;;;;;;;;;18.00;18.00;;;;;19.88;71.48;99657.84;6278784;20;2831552;-60
2022/05/13 03:16:24;;;;;;;;;16.00;14.50;;;;;19.77;71.03;99662.66;6279649;20;2812755;-60
2022/05/13 03:18:58;;;;;;;;;14.33;13.33;;;;;19.73;71.40;99662.97;6276205;20;3527406;-60
2022/05/13 03:21:27;;;;;;;;;15.00;15.00;;;;;19.71;71.32;99669.59;6278983;20;2491944;-60
2022/05/13 03:23:58;;;;;;;;;15.67;15.67;;;;;19.94;70.32;99673.56;6280692;20;3556623;-60
2022/05/13 03:26:27;;;;;;;;;12.67;12.00;;;;;20.01;68.32;99675.66;6284020;20;2801350;-60
2022/05/13 03:28:55;;;;;;;;;14.33;13.33;;;;;20.18;67.53;99677.53;6308405;20;3526743;-60
2022/05/13 03:31:24;;;;;;;;;11.67;11.67;;;;;20.29;66.99;99677.28;6307532;20;3526333;-60
2022/05/13 03:33:53;;;;;;;;;25.33;22.00;;;;;20.26;66.93;99685.81;6280431;20;2850317;-60
2022/05/13 03:36:22;;;;;;;;;31.00;30.00;;;;;20.50;66.46;99693.31;6308106;20;3596195;-60
2022/05/13 03:38:51;;;;;;;;;27.67;24.33;;;;;20.36;66.83;99694.75;6278343;20;3598140;-60
2022/05/13 03:41:19;;;;;;;;;22.67;19.00;;;;;20.18;67.15;99694.75;6281911;20;3565873;-60
2022/05/13 03:43:48;;;;;;;;;17.00;16.00;;;;;20.20;68.38;99694.63;6311534;20;2831493;-60
2022/05/13 03:46:16;;;;;;;;;14.33;14.33;;;;;20.22;68.23;99694.44;6279783;20;3531645;-60
2022/05/13 03:48:44;;;;;;;;;10.50;10.50;;;;;20.27;67.11;99703.00;6283524;20;2789826;-61
2022/05/13 03:51:13;;;;;;;;;14.00;12.67;;;;;20.39;66.30;99710.78;6281195;20;2792953;-60
2022/05/13 03:53:42;;;;;;;;;14.67;13.00;;;;;20.25;66.94;99705.91;6311044;20;3523299;-60
2022/05/13 03:56:11;;;;;;;;;13.67;12.33;;;;;20.16;66.90;99709.56;6277732;20;3529410;-60
2022/05/13 03:58:40;;;;;;;;;12.67;12.67;;;;;19.92;69.60;99711.00;6285095;20;2804458;-60
2022/05/13 04:01:08;;;;;;;;;12.00;12.00;;;;;20.01;68.86;99713.81;6315475;20;3528406;-60
2022/05/13 04:03:37;;;;;;;;;12.33;11.00;;;;;20.05;69.53;99707.06;6285739;20;3523522;-60
2022/05/13 04:08:58;;;;;;;;;11.00;10.00;;;;;20.14;68.52;99719.75;6284479;20;2667291;-53
2022/05/13 04:11:40;;;;;;;;;12.00;11.00;;;;;19.80;70.76;99712.25;6317396;20;3515303;-49
2022/05/13 04:16:58;;;;;;;;;10.33;10.33;;;;;20.07;68.57;99713.22;6315824;20;3516008;-49
2022/05/13 04:19:27;;;;;;;;;12.67;12.00;;;;;20.18;69.01;99710.25;6314316;20;3526397;-51
2022/05/13 04:21:55;;;;;;;;;16.67;12.67;;;;;20.07;69.03;99714.09;6286569;20;2818076;-50
2022/05/13 04:24:25;;;;;;;;;15.00;15.00;;;;;20.46;67.37;99729.25;6316133;20;2483618;-50
2022/05/13 04:26:54;;;;;;;;;18.00;16.00;;;;;20.17;70.53;99725.78;6283415;20;2833580;-50
2022/05/13 04:29:22;;;;;;;;;17.00;15.00;;;;;20.01;71.50;99730.19;6281557;20;2806495;-47
2022/05/13 04:31:51;;;;;;;;;21.33;17.33;;;;;20.39;69.25;99738.06;6283296;20;2496079;-50
2022/05/13 04:34:20;;;;;;;;;28.00;25.00;;;;;20.08;72.32;99737.59;6320721;20;3583543;-46
2022/05/13 04:36:49;;;;;;;;;20.50;16.00;;;;;20.10;72.41;99734.72;6288991;20;2827338;-50
2022/05/13 04:39:17;;;;;;;;;16.00;16.00;;;;;20.25;71.99;99738.63;6285317;20;2498175;-51
2022/05/13 04:44:37;;;;;;;;;15.50;15.50;;;;;19.99;73.81;99740.41;6286663;20;2496107;-46
2022/05/13 04:48:15;;;;;;;;;20.33;17.67;;;;;20.22;72.10;99738.94;6288582;20;2844151;-51
2022/05/13 04:49:57;;;;;;;;;31.25;26.50;;;;;20.11;72.05;99745.44;6314513;20;3598344;-60
2022/05/13 04:52:26;;;;;;;;;22.67;16.67;;;;;20.10;71.79;99745.63;6318235;20;2834672;-60
2022/05/13 04:54:55;;;;;;;;;20.33;16.00;;;;;19.99;72.55;99741.25;6320447;20;3567976;-60
2022/05/13 04:57:24;;;;;;;;;14.33;14.33;;;;;20.27;70.76;99752.09;6285131;20;3537752;-60
2022/05/13 04:59:52;;;;;;;;;11.00;11.00;;;;;20.06;71.93;99745.06;6292310;20;2793998;-60
2022/05/13 05:02:20;;;;;;;;;23.33;20.00;;;;;20.20;73.03;99740.97;6289700;20;2836709;-60
2022/05/13 05:04:49;;;;;;;;;34.33;30.67;;;;;20.33;72.19;99748.75;6318404;20;3607497;-60
2022/05/13 05:07:18;;;;;;;;;33.00;29.25;;;;;20.59;70.35;99747.00;6289379;20;3612834;-60
2022/05/13 05:09:47;;;;;;;;;19.33;16.00;;;;;20.84;67.76;99755.38;6318708;20;3559611;-60
2022/05/13 05:12:16;;;;;;;;;14.00;11.33;;;;;20.92;66.97;99754.56;6293176;20;2789892;-60
2022/05/13 05:14:44;;;;;;;;;20.00;17.00;;;;;20.93;66.51;99754.44;6318519;20;3573643;-60
2022/05/13 05:17:13;;;;;;;;;14.00;10.00;;;;;21.03;65.71;99762.50;6284204;20;3517944;-60
2022/05/13 05:19:41;;;;;;;;;8.00;8.00;;;;;21.19;64.58;99765.31;6320616;20;2742025;-61
2022/05/13 05:22:10;;;;;;;;;9.00;7.00;;;;;21.55;63.52;99765.22;6319872;20;2751289;-60
2022/05/13 05:24:39;;;;;;;;;7.00;7.00;;;;;21.50;63.81;99762.13;6345592;20;2735689;-60
2022/05/13 05:27:10;;;;;;;;;7.40;7.40;;;;;21.70;63.15;99770.94;6345658;20;2735663;-60
2022/05/13 05:29:39;;;;;;;;;7.00;7.00;;;;;21.81;63.56;99780.72;6319788;20;2733608;-60
2022/05/13 05:32:09;;;;;;;;;8.00;8.00;;;;;21.80;63.29;99776.25;6346152;20;2754486;-60
2022/05/13 05:34:37;;;;;;;;;6.67;6.00;;;;;22.16;62.57;99778.78;6297525;20;2735751;-61
2022/05/13 05:37:07;;;;;;;;;7.00;7.00;;;;;22.42;61.59;99781.44;6345310;20;2750315;-60
2022/05/13 05:39:37;;;;;;;;;7.40;6.20;;;;;22.44;61.34;99777.50;6310231;20;2733631;-60
2022/05/13 05:42:08;;;;;;;;;8.60;8.60;;;;;22.51;61.03;99789.50;6345002;20;2742002;-60
2022/05/13 05:44:38;;;;;;;;;6.40;6.40;;;;;22.89;60.82;99798.06;6314090;20;2742446;-60
2022/05/13 05:47:08;;;;;;;;;8.00;7.20;;;;;22.58;60.74;99804.19;6315020;20;2739883;-60
2022/05/13 05:49:37;;;;;;;;;7.00;7.00;;;;;22.35;61.49;99808.59;6311677;20;2734720;-60
2022/05/13 05:52:09;;;;;;;;;10.20;9.00;;;;;22.11;61.96;99802.00;6311884;20;2759701;-60
2022/05/13 05:57:32;;;;;;;;;7.33;7.33;;;;;21.90;63.49;99807.06;6292290;20;2738902;-61
2022/05/13 06:00:01;;;;;;;;;8.67;8.00;;;;;21.95;63.34;99799.22;6325790;20;2743998;-60
2022/05/13 06:02:30;;;;;;;;;7.00;7.00;;;;;21.78;63.57;99808.38;6328004;20;2734720;-60
2022/05/13 06:04:59;;;;;;;;;8.75;6.50;;;;;21.90;64.25;99812.53;6346238;20;2028418;-61
2022/05/13 06:07:29;;;;;;;;;10.20;8.00;;;;;21.93;64.29;99806.72;6343541;20;2773188;-60
2022/05/13 06:09:58;;;;;;;;;7.60;7.60;;;;;22.02;64.65;99811.22;6315962;20;2735655;-61
2022/05/13 06:12:28;;;;;;;;;6.00;5.00;;;;;21.48;65.08;99808.75;6343902;20;2734715;-59
2022/05/13 06:14:57;;;;;;;;;5.00;5.00;;;;;21.38;65.41;99815.31;6341341;20;2750298;-61
2022/05/13 06:17:27;;;;;;;;;6.20;6.20;;;;;21.52;65.51;99827.56;6313526;20;2737792;-61
2022/05/13 06:20:06;;;;;;;;;9.80;8.20;;;;;21.98;64.89;99831.69;6339161;20;2755475;-61
2022/05/13 06:22:35;;;;;;;;;7.00;6.00;;;;;22.10;64.28;99826.81;6289919;20;2748298;-61
2022/05/13 06:25:05;;;;;;;;;8.20;6.00;;;;;22.31;63.41;99827.25;6342178;20;2741911;-60
2022/05/13 06:27:35;;;;;;;;;7.00;7.00;;;;;22.49;62.75;99818.91;6345310;20;2742003;-60
2022/05/13 06:30:14;;;;;;;;;24.67;22.00;;;;;22.05;63.48;99821.81;6314821;20;3575777;-59
2022/05/13 06:32:44;;;;;;;;;7.80;7.40;;;;;22.04;64.07;99820.13;6314815;20;2742959;-60
2022/05/13 06:35:13;;;;;;;;;11.33;10.67;;;;;22.34;62.79;99821.44;6317440;20;3530933;-60
2022/05/13 06:37:42;;;;;;;;;6.00;6.00;;;;;22.12;63.48;99811.09;6287670;20;2741923;-59
2022/05/13 06:40:12;;;;;;;;;7.00;7.00;;;;;22.23;63.30;99816.28;6340856;20;2732579;-61
2022/05/13 06:42:43;;;;;;;;;8.80;7.20;;;;;22.79;62.12;99822.88;6342606;20;2733601;-60
2022/05/13 06:45:13;;;;;;;;;7.60;7.00;;;;;22.84;61.13;99816.88;6344712;20;2739830;-59
2022/05/13 06:47:43;;;;;;;;;2.00;2.00;;;;;22.48;62.46;99825.38;6319196;20;2756499;-60
2022/05/13 06:50:18;;;;;;;;;6.50;6.50;;;;;22.60;60.67;99823.19;6347062;20;2731555;-58
2022/05/13 06:52:47;;;;;;;;;7.33;7.33;;;;;23.64;58.62;99824.34;6286274;20;2739904;-60
2022/05/13 06:55:18;;;;;;;;;8.00;8.00;;;;;23.14;60.01;99822.72;6328727;20;2735680;-59
2022/05/13 06:57:46;;;;;;;;;8.00;7.00;;;;;23.14;59.57;99822.72;6324273;20;2746084;-60
2022/05/13 07:00:17;;;;;;;;;7.00;7.00;;;;;23.58;58.26;99822.31;6344236;20;2748225;-59
2022/05/13 07:02:46;;;;;;;;;6.00;6.00;;;;;23.86;57.09;99825.53;6309290;20;2745227;-59
2022/05/13 07:05:20;;;;;;;;;6.00;6.00;;;;;23.52;57.07;99818.41;6311347;20;2746516;-61
2022/05/13 07:07:50;;;;;;;;;7.20;7.20;;;;;23.99;55.93;99814.00;6311663;20;2743994;-61
2022/05/13 07:10:20;;;;;;;;;14.00;8.00;;;;;24.03;56.73;99818.09;6341341;20;2766901;-60
2022/05/13 07:12:49;;;;;;;;;8.33;8.00;;;;;24.80;54.40;99820.91;6286933;20;2748267;-60
2022/05/13 07:15:20;;;;;;;;;6.40;6.00;;;;;24.71;54.46;99811.88;6341902;20;2740981;-61
2022/05/13 07:17:50;;;;;;;;;7.20;7.00;;;;;25.82;51.21;99825.97;6312789;20;2735660;-61
2022/05/13 07:20:19;;;;;;;;;8.40;8.40;;;;;25.78;50.86;99822.75;6340483;20;2751283;-61
2022/05/13 07:22:49;;;;;;;;;5.00;5.00;;;;;25.93;50.59;99820.03;6313852;20;2748165;-61
2022/05/13 07:25:19;;;;;;;;;7.80;6.20;;;;;25.52;50.20;99825.13;6310767;20;2744020;-61
2022/05/13 07:27:49;;;;;;;;;5.40;5.20;;;;;24.92;52.58;99818.59;6311040;20;2739870;-61
2022/05/13 07:30:18;;;;;;;;;8.00;5.67;;;;;25.42;51.92;99811.63;6283913;20;2731567;-61
2022/05/13 07:32:47;;;;;;;;;7.00;7.00;;;;;26.30;49.52;99818.16;6344442;20;2748228;-61
2022/05/13 07:35:16;;;;;;;;;7.00;6.67;;;;;26.45;49.16;99826.41;6293019;20;2740996;-61
2022/05/13 07:37:45;;;;;;;;;6.80;5.80;;;;;26.83;47.84;99829.81;6346279;20;2733600;-62
2022/05/13 07:43:03;;;;;;;;;7.00;5.33;;;;;26.63;47.00;99831.50;6292891;20;2740916;-61
2022/05/13 07:45:33;;;;;;;;;8.00;7.33;;;;;27.10;45.76;99841.09;6324892;20;2735673;-61
2022/05/13 07:48:02;;;;;;;;;4.67;4.67;;;;;27.68;44.56;99844.56;6323640;20;2748316;-61
2022/05/13 07:50:33;;;;;;;;;7.40;5.20;;;;;26.65;44.32;99826.66;6347195;20;2748153;-61
2022/05/13 07:53:03;;;;;;;;;3.00;3.00;;;;;26.80;44.33;99838.44;6313498;20;2746190;-61
2022/05/13 07:55:33;;;;;;;;;5.40;4.20;;;;;25.97;45.91;99832.38;6313540;20;2745493;-61
2022/05/13 07:58:02;;;;;;;;;4.60;4.60;;;;;25.72;46.78;99837.25;6314910;20;2741961;-62
2022/05/13 08:00:36;;;;;;;;;3.80;3.80;;;;;25.55;46.00;99830.25;6346069;20;2744016;-61
2022/05/13 08:03:13;;;;;;;;;4.80;4.00;;;;;25.51;47.21;99838.00;6313177;20;2747122;-62
2022/05/13 08:05:51;;;;;;;;;6.00;6.00;;;;;26.86;44.47;99845.09;6315209;20;2748187;-62
2022/05/13 08:08:29;;;;;;;;;5.60;4.60;;;;;27.70;42.88;99853.50;6315397;20;2748281;-61
2022/05/13 08:11:04;;;;;;;;;5.00;5.00;;;;;27.06;44.34;99837.88;6313117;20;2747164;-62
2022/05/13 08:13:34;;;;;;;;;4.40;4.40;;;;;26.41;45.39;99836.97;6317329;20;2746060;-62
2022/05/13 08:16:26;;;;;;;;;5.00;4.80;;;;;26.34;45.94;99836.00;6312820;20;2747182;-62
2022/05/13 08:18:56;;;;;;;;;6.00;5.00;;;;;26.13;44.87;99838.72;6290780;20;2748190;-62
2022/05/13 08:21:26;;;;;;;;;4.00;4.00;;;;;26.14;45.56;99840.41;6343977;20;2744051;-62
2022/05/13 08:23:55;;;;;;;;;6.00;4.00;;;;;25.82;46.55;99847.97;6314799;20;2748149;-62
2022/05/13 08:26:25;;;;;;;;;5.80;5.20;;;;;26.05;46.12;99837.75;6311723;20;2743990;-62
2022/05/13 08:28:55;;;;;;;;;4.60;3.60;;;;;25.84;46.14;99846.78;6315877;20;2748163;-62
2022/05/13 08:31:24;;;;;;;;;4.20;3.00;;;;;26.14;45.52;99848.66;6313912;20;2754524;-62
2022/05/13 08:33:54;;;;;;;;;5.20;5.20;;;;;26.10;45.48;99847.34;6317573;20;2748172;-62
2022/05/13 08:36:23;;;;;;;;;4.00;4.00;;;;;25.88;46.11;99844.50;6313263;20;2756490;-62
2022/05/13 08:38:53;;;;;;;;;4.40;4.40;;;;;26.04;46.09;99836.06;6315547;20;2746094;-62
2022/05/13 08:41:31;;;;;;;;;3.00;3.00;;;;;26.73;44.22;99837.56;6342791;20;2739831;-62
2022/05/13 08:44:07;;;;;;;;;3.80;3.80;;;;;25.95;44.56;99842.69;6315381;20;2744012;-62
2022/05/13 08:46:57;;;;;;;;;6.00;5.00;;;;;26.23;44.90;99839.28;6313146;20;2745108;-61
2022/05/13 08:50:00;;;;;;;;;2.60;2.60;;;;;25.90;44.47;99850.66;6313222;20;2748397;-61
2022/05/13 08:53:07;;;;;;;;;4.00;4.00;;;;;26.12;45.16;99848.00;6310868;20;2746122;-62
2022/05/13 08:55:50;;;;;;;;;3.00;3.00;;;;;26.77;44.82;99846.28;6312076;20;2735714;-62
2022/05/13 08:58:45;;;;;;;;;4.00;4.00;;;;;27.03;44.49;99845.69;6311714;20;2756508;-62
2022/05/13 09:01:35;;;;;;;;;4.00;4.00;;;;;27.21;43.58;99837.81;6286418;20;2747171;-62
2022/05/13 09:04:47;;;;;;;;;4.60;3.00;;;;;27.27;43.21;99837.03;6341393;20;2752328;-62
2022/05/13 09:07:21;;;;;;;;;3.00;3.00;;;;;26.56;44.00;99827.81;6312530;20;2748201;-62
2022/05/13 09:09:57;;;;;;;;;4.20;4.20;;;;;26.30;45.12;99820.91;6314381;20;2740933;-62
2022/05/13 09:12:51;;;;;;;;;4.20;4.20;;;;;26.47;44.49;99824.31;6311977;20;2747270;-62
2022/05/13 09:15:58;;;;;;;;;5.00;4.40;;;;;26.28;45.98;99815.63;6311459;20;2749333;-63
2022/05/13 09:18:57;;;;;;;;;4.40;4.00;;;;;26.33;44.57;99822.44;6312146;20;2748285;-62
2022/05/13 09:21:25;;;;;;;;;5.50;5.00;;;;;25.65;45.95;99821.72;6302497;20;3463772;-62
2022/05/13 09:23:55;;;;;;;;;3.40;3.40;;;;;25.83;45.83;99822.19;6346385;20;2750391;-62
2022/05/13 09:26:26;;;;;;;;;4.00;4.00;;;;;25.80;45.72;99822.56;6287865;20;2756492;-62
2022/05/13 09:29:17;;;;;;;;;4.00;4.00;;;;;25.78;45.95;99824.66;6321230;20;2749272;-62
2022/05/13 09:31:57;;;;;;;;;4.80;4.80;;;;;25.87;46.69;99820.78;6344907;20;2745104;-62
2022/05/13 09:34:35;;;;;;;;;3.00;3.00;;;;;26.42;44.28;99824.03;6292231;20;2751060;-62
2022/05/13 09:37:27;;;;;;;;;6.40;5.00;;;;;27.05;43.64;99816.03;6345867;20;2750309;-63
2022/05/13 09:40:22;;;;;;;;;4.00;4.00;;;;;26.95;44.42;99815.50;6285051;20;2750289;-63
2022/05/13 09:42:57;;;;;;;;;3.20;3.20;;;;;26.67;44.35;99813.53;6345636;20;2748287;-61
2022/05/13 09:45:36;;;;;;;;;3.80;3.40;;;;;27.00;43.54;99816.63;6314514;20;2756566;-62
2022/05/13 09:48:20;;;;;;;;;3.40;3.40;;;;;27.14;44.61;99812.06;6312750;20;2748240;-62
2022/05/13 09:50:59;;;;;;;;;4.00;4.00;;;;;28.13;41.09;99811.09;6287573;20;2742988;-63
2022/05/13 09:53:33;;;;;;;;;5.67;4.67;;;;;28.19;41.83;99807.50;6318675;20;2750278;-63
2022/05/13 09:56:04;;;;;;;;;4.00;4.00;;;;;29.14;40.08;99813.91;6341735;20;2756521;-63
2022/05/13 09:58:51;;;;;;;;;3.00;3.00;;;;;28.64;39.91;99805.09;6316210;20;2750415;-62
2022/05/13 10:01:28;;;;;;;;;4.00;4.00;;;;;28.05;40.77;99805.75;6311721;20;2740931;-61
2022/05/13 10:04:26;;;;;;;;;3.80;3.80;;;;;28.01;40.55;99814.41;6313255;20;2756659;-60
2022/05/13 10:07:08;;;;;;;;;3.60;3.60;;;;;27.87;42.67;99806.28;6310958;20;2743998;-61
2022/05/13 10:15:43;;;;;;;;;5.67;5.67;;;;;26.81;45.27;99804.34;6286932;20;2747154;-60
2022/05/13 10:18:55;;;;;;;;;4.33;4.33;;;;;26.21;45.71;99800.06;6319158;20;2754431;-59
2022/05/13 10:22:26;;;;;;;;;5.00;4.00;;;;;26.34;46.46;99800.22;6342179;20;2746081;-60
2022/05/13 10:25:24;;;;;;;;;4.20;4.20;;;;;26.44;46.46;99805.44;6310284;20;2737827;-60
2022/05/13 10:28:07;;;;;;;;;10.33;7.00;;;;;26.42;46.22;99799.25;6286587;20;2768112;-60
2022/05/13 10:30:56;;;;;;;;;8.20;6.00;;;;;26.47;47.08;99800.38;6338506;20;2743033;-61
2022/05/13 10:33:33;;;;;;;;;7.80;5.00;;;;;27.43;44.86;99804.69;6311334;20;2745142;-61
2022/05/13 10:36:25;;;;;;;;;6.67;4.00;;;;;28.25;43.35;99806.66;6290002;20;2748211;-60
2022/05/13 10:39:47;;;;;;;;;5.00;5.00;;;;;27.76;42.91;99803.00;6340419;20;2750265;-61
2022/05/13 10:42:32;;;;;;;;;4.33;4.33;;;;;27.19;44.99;99806.00;6280007;20;2746074;-60
2022/05/13 10:45:19;;;;;;;;;4.40;4.40;;;;;27.44;45.09;99798.13;6340105;20;2750282;-60
2022/05/13 10:48:05;;;;;;;;;4.80;4.20;;;;;27.91;43.05;99799.28;6307744;20;2742027;-60
2022/05/13 10:51:01;;;;;;;;;5.00;3.67;;;;;27.60;43.61;99799.72;6319797;20;2754400;-60
2022/05/13 10:54:33;;;;;;;;;6.00;5.00;;;;;28.32;43.56;99801.16;6342474;20;2740970;-60
2022/05/13 10:57:24;;;;;;;;;6.33;5.33;;;;;27.63;42.74;99791.88;6279230;20;2750306;-60
2022/05/13 11:00:17;;;;;;;;;4.00;4.00;;;;;27.61;42.92;99799.50;6313031;20;2745070;-60
2022/05/13 11:03:39;;;;;;;;;5.00;5.00;;;;;27.32;42.81;99792.31;6309871;20;2738918;-60
2022/05/13 11:06:46;;;;;;;;;5.40;5.40;;;;;27.60;42.70;99786.78;6338031;20;2739269;-61
2022/05/13 11:09:55;;;;;;;;;7.67;6.00;;;;;27.31;43.07;99791.47;6315631;20;2746207;-60
2022/05/13 11:12:45;;;;;;;;;6.60;4.40;;;;;27.50;42.32;99791.81;6343124;20;2746221;-61
2022/05/13 11:16:01;;;;;;;;;5.00;5.00;;;;;27.59;42.74;99790.56;6286368;20;2748183;-59
2022/05/13 11:18:59;;;;;;;;;12.33;5.00;;;;;27.93;42.82;99786.97;6320649;20;2763859;-60
2022/05/13 11:21:57;;;;;;;;;5.67;4.67;;;;;27.27;43.42;99792.06;6315559;20;2749276;-61
2022/05/13 11:28:24;;;;;;;;;6.00;4.33;;;;;28.60;41.95;99782.59;6317530;20;2737830;-60
2022/05/13 11:31:09;;;;;;;;;4.60;4.60;;;;;27.87;42.53;99775.91;6337572;20;2747138;-60
2022/05/13 11:34:15;;;;;;;;;2.00;2.00;;;;;27.41;42.94;99779.22;6308001;20;2737932;-58
2022/05/13 11:37:02;;;;;;;;;6.33;5.67;;;;;28.01;42.78;99766.63;6284543;20;2741922;-59
2022/05/13 11:40:04;;;;;;;;;4.33;4.33;;;;;27.89;42.57;99769.16;6314763;20;2738993;-60
2022/05/13 11:46:04;;;;;;;;;6.67;5.67;;;;;28.19;43.44;99761.38;6318259;20;2742955;-58
2022/05/13 11:49:23;;;;;;;;;6.40;6.40;;;;;27.42;45.27;99767.16;6345168;20;2736712;-59
2022/05/13 11:51:53;;;;;;;;;9.50;6.50;;;;;27.33;45.65;99770.06;6301309;20;2631509;-59
2022/05/13 11:54:30;;;;;;;;;7.60;5.80;;;;;27.51;45.51;99771.44;6342344;20;2736780;-59
2022/05/13 11:57:23;;;;;;;;;6.00;4.00;;;;;26.85;44.96;99767.09;6307178;20;2737790;-59
2022/05/13 12:00:30;;;;;;;;;11.00;7.00;;;;;27.11;46.09;99760.09;6284674;20;2760666;-58
2022/05/13 12:03:12;;;;;;;;;6.00;6.00;;;;;27.18;46.33;99760.19;6314526;20;2742045;-60
2022/05/13 12:06:10;;;;;;;;;8.00;6.00;;;;;27.92;44.18;99754.09;6316833;20;2746245;-60
2022/05/13 12:08:57;;;;;;;;;5.00;5.00;;;;;27.18;46.16;99751.94;6338742;20;2736899;-59
2022/05/13 12:12:13;;;;;;;;;4.80;4.80;;;;;27.45;45.05;99755.72;6307242;20;2748193;-59
2022/05/13 12:15:11;;;;;;;;;6.40;6.40;;;;;26.96;46.02;99751.06;6310352;20;2746076;-60